Time;durP1;ratioP1;P1;durP2;ratioP2;P2;SDS_P1;SDS_P2;PMS_P1;PMS_P2;Temp;Humidity;BMP_temperature;BMP_pressure;BME280_temperature;BME280_humidity;BME280_pressure;Samples;Min_cycle;Max_cycle;Signal;HPM_P1;HPM_P2
2021/06/18 00:01:39;;;;;;;135.88;87.20;;;;;;;;;;4991452;28;20056;-66
2021/06/18 00:04:05;;;;;;;133.57;83.03;;;;;;;;;;4999075;28;20238;-66
2021/06/18 00:06:31;;;;;;;127.15;79.30;;;;;;;;;;4990179;28;21116;-65
2021/06/18 00:08:57;;;;;;;150.32;85.85;;;;;;;;;;4992884;28;20056;-65
2021/06/18 00:11:23;;;;;;;146.07;87.25;;;;;;;;;;4987361;28;20171;-65
2021/06/18 00:13:49;;;;;;;149.73;92.45;;;;;;;;;;4989210;28;20594;-66
2021/06/18 00:16:15;;;;;;;147.80;92.53;;;;;;;;;;4990795;28;20033;-65
2021/06/18 00:18:42;;;;;;;159.55;97.78;;;;;;;;;;4988408;28;20044;-66
2021/06/18 00:21:08;;;;;;;166.95;104.07;;;;;;;;;;4988327;28;20021;-65
2021/06/18 00:23:34;;;;;;;149.60;97.03;;;;;;;;;;4987825;28;20034;-65
2021/06/18 00:26:00;;;;;;;141.02;95.80;;;;;;;;;;4998079;28;20034;-65
2021/06/18 00:28:27;;;;;;;155.30;103.68;;;;;;;;;;4992168;28;20018;-66
2021/06/18 00:30:53;;;;;;;148.82;97.88;;;;;;;;;;4996302;28;20651;-66
2021/06/18 00:33:19;;;;;;;167.30;106.05;;;;;;;;;;4995785;28;20411;-65
2021/06/18 00:35:45;;;;;;;154.15;102.65;;;;;;;;;;5000274;28;20524;-65
2021/06/18 00:38:11;;;;;;;167.38;107.15;;;;;;;;;;5001579;28;20033;-65
2021/06/18 00:40:37;;;;;;;184.98;114.38;;;;;;;;;;4988178;28;20034;-65
2021/06/18 00:43:04;;;;;;;153.18;103.90;;;;;;;;;;4991496;28;20037;-65
2021/06/18 00:45:30;;;;;;;206.50;124.90;;;;;;;;;;4988423;28;20662;-65
2021/06/18 00:47:58;;;;;;;182.50;112.13;;;;;;;;;;4996731;28;20037;-65
2021/06/18 00:50:25;;;;;;;184.40;117.70;;;;;;;;;;4990532;28;20046;-65
2021/06/18 00:52:51;;;;;;;159.00;102.53;;;;;;;;;;4990719;28;20030;-65
2021/06/18 00:55:17;;;;;;;158.18;103.97;;;;;;;;;;4988310;28;20038;-66
2021/06/18 00:57:43;;;;;;;173.82;114.10;;;;;;;;;;4983708;28;20034;-65
2021/06/18 01:00:10;;;;;;;177.50;114.38;;;;;;;;;;4996270;28;20129;-65
2021/06/18 01:02:37;;;;;;;199.68;120.35;;;;;;;;;;4991463;28;20030;-65
2021/06/18 01:05:03;;;;;;;205.82;125.57;;;;;;;;;;4991949;28;20025;-65
2021/06/18 01:07:34;;;;;;;179.05;111.70;;;;;;;;;;5001210;28;20539;-65
2021/06/18 01:09:59;;;;;;;193.23;115.78;;;;;;;;;;5009054;28;20041;-65
2021/06/18 01:12:27;;;;;;;182.10;114.97;;;;;;;;;;5003319;28;20485;-66
2021/06/18 01:15:14;;;;;;;194.40;119.88;;;;;;;;;;4972826;28;20084;-65
2021/06/18 01:17:45;;;;;;;198.95;120.80;;;;;;;;;;5000218;28;20101;-65
2021/06/18 01:20:17;;;;;;;238.45;137.73;;;;;;;;;;4990383;28;20121;-65
2021/06/18 01:22:46;;;;;;;252.30;140.82;;;;;;;;;;5001766;28;20098;-65
2021/06/18 01:25:18;;;;;;;271.17;148.38;;;;;;;;;;4998573;28;20053;-66
2021/06/18 01:27:47;;;;;;;283.83;154.70;;;;;;;;;;4974109;28;20481;-65
2021/06/18 01:30:18;;;;;;;266.80;143.20;;;;;;;;;;4996720;28;20038;-65
2021/06/18 01:32:54;;;;;;;226.85;129.80;;;;;;;;;;5006974;28;20077;-66
2021/06/18 01:35:21;;;;;;;213.20;131.07;;;;;;;;;;4986829;28;20046;-66
2021/06/18 01:37:48;;;;;;;222.50;130.40;;;;;;;;;;5001890;28;20066;-66
2021/06/18 01:40:16;;;;;;;213.90;122.63;;;;;;;;;;5003109;28;20019;-66
2021/06/18 01:42:43;;;;;;;223.57;130.00;;;;;;;;;;4992250;28;20031;-66
2021/06/18 01:45:13;;;;;;;211.80;121.45;;;;;;;;;;4984794;28;20041;-65
2021/06/18 01:47:40;;;;;;;224.70;127.25;;;;;;;;;;4992742;28;20029;-66
2021/06/18 01:50:07;;;;;;;200.00;116.65;;;;;;;;;;5001345;28;20022;-65
2021/06/18 01:52:33;;;;;;;193.15;113.13;;;;;;;;;;4998443;28;20493;-66
2021/06/18 01:55:02;;;;;;;188.63;113.78;;;;;;;;;;4998346;28;20087;-65
2021/06/18 01:57:29;;;;;;;217.70;120.93;;;;;;;;;;4991305;28;20022;-66
2021/06/18 01:59:55;;;;;;;271.98;136.07;;;;;;;;;;4994103;28;20026;-66
2021/06/18 02:02:22;;;;;;;238.55;122.57;;;;;;;;;;4991521;28;20022;-66
2021/06/18 02:04:49;;;;;;;222.88;122.85;;;;;;;;;;5001560;28;20393;-67
2021/06/18 02:07:16;;;;;;;327.83;144.35;;;;;;;;;;4995126;28;20027;-67
2021/06/18 02:09:43;;;;;;;232.45;123.03;;;;;;;;;;4993570;28;20071;-67
2021/06/18 02:12:10;;;;;;;223.35;123.32;;;;;;;;;;5004899;28;20517;-67
2021/06/18 02:14:37;;;;;;;230.05;121.28;;;;;;;;;;4997873;28;20038;-67
2021/06/18 02:17:05;;;;;;;219.15;114.97;;;;;;;;;;4989694;28;20030;-68
2021/06/18 02:19:32;;;;;;;425.98;157.77;;;;;;;;;;4997920;28;20033;-68
2021/06/18 02:21:58;;;;;;;338.83;145.73;;;;;;;;;;5003822;28;20042;-68
2021/06/18 02:24:26;;;;;;;353.05;152.80;;;;;;;;;;4997376;28;20034;-69
2021/06/18 02:26:53;;;;;;;395.80;155.48;;;;;;;;;;4991012;28;20026;-69
2021/06/18 02:29:19;;;;;;;407.50;163.85;;;;;;;;;;4988593;28;20030;-68
2021/06/18 02:31:45;;;;;;;294.30;137.25;;;;;;;;;;4989193;28;20424;-69
2021/06/18 02:34:12;;;;;;;351.98;149.02;;;;;;;;;;4989137;28;20042;-69
2021/06/18 02:36:39;;;;;;;275.55;133.73;;;;;;;;;;5002330;28;20033;-69
2021/06/18 02:39:06;;;;;;;286.23;133.80;;;;;;;;;;4980860;28;20026;-68
2021/06/18 02:41:32;;;;;;;251.02;128.75;;;;;;;;;;4989723;28;20026;-69
2021/06/18 02:43:59;;;;;;;381.63;161.65;;;;;;;;;;5009135;28;20058;-69
2021/06/18 02:46:29;;;;;;;359.70;154.20;;;;;;;;;;5007252;28;20041;-69
2021/06/18 02:48:58;;;;;;;349.30;152.60;;;;;;;;;;4996116;28;20031;-69
2021/06/18 02:51:30;;;;;;;361.42;153.27;;;;;;;;;;4994307;28;20499;-69
2021/06/18 02:53:56;;;;;;;362.70;156.30;;;;;;;;;;4989877;28;20030;-70
2021/06/18 02:56:32;;;;;;;364.92;157.50;;;;;;;;;;4989762;28;20042;-70
2021/06/18 02:59:10;;;;;;;344.77;153.48;;;;;;;;;;5005343;28;20037;-69
2021/06/18 03:01:38;;;;;;;355.75;152.95;;;;;;;;;;4993220;28;20038;-69
2021/06/18 03:04:05;;;;;;;294.15;139.38;;;;;;;;;;5005222;28;20036;-68
2021/06/18 03:06:34;;;;;;;275.30;131.38;;;;;;;;;;4999780;28;20545;-68
2021/06/18 03:09:05;;;;;;;253.02;128.68;;;;;;;;;;4993857;28;20022;-68
2021/06/18 03:11:37;;;;;;;328.98;150.75;;;;;;;;;;4988168;28;20011;-68
2021/06/18 03:14:06;;;;;;;367.08;156.13;;;;;;;;;;5004445;28;20030;-68
2021/06/18 03:16:32;;;;;;;309.20;147.48;;;;;;;;;;4993265;28;20026;-68
2021/06/18 03:19:01;;;;;;;333.88;145.38;;;;;;;;;;5006484;28;20064;-68
2021/06/18 03:21:27;;;;;;;273.42;131.80;;;;;;;;;;4990813;28;20022;-69
2021/06/18 03:23:53;;;;;;;334.95;146.85;;;;;;;;;;4989640;28;20077;-68
2021/06/18 03:26:20;;;;;;;302.80;137.40;;;;;;;;;;4990708;28;20038;-68
2021/06/18 03:28:47;;;;;;;319.67;137.93;;;;;;;;;;4999913;28;20134;-67
2021/06/18 03:31:14;;;;;;;264.80;124.85;;;;;;;;;;4998158;28;20041;-67
2021/06/18 03:33:41;;;;;;;348.02;132.32;;;;;;;;;;4989418;28;20030;-67
2021/06/18 03:36:07;;;;;;;231.85;109.45;;;;;;;;;;4988576;28;20042;-67
2021/06/18 03:38:34;;;;;;;256.05;112.97;;;;;;;;;;4989288;28;20038;-67
2021/06/18 03:41:00;;;;;;;273.00;115.30;;;;;;;;;;4987749;28;20025;-67
2021/06/18 03:43:27;;;;;;;245.50;107.45;;;;;;;;;;4999133;28;20029;-66
2021/06/18 03:45:55;;;;;;;198.55;94.30;;;;;;;;;;4985648;28;20027;-66
2021/06/18 03:48:22;;;;;;;262.20;107.53;;;;;;;;;;4994786;28;20129;-67
2021/06/18 03:50:48;;;;;;;190.43;92.05;;;;;;;;;;4982856;28;20018;-67
2021/06/18 03:53:16;;;;;;;188.70;93.68;;;;;;;;;;4998590;28;20594;-67
2021/06/18 03:55:45;;;;;;;245.88;105.65;;;;;;;;;;5008853;28;20034;-66
2021/06/18 03:58:12;;;;;;;178.15;87.43;;;;;;;;;;5007678;28;20075;-67
2021/06/18 04:00:39;;;;;;;169.35;84.97;;;;;;;;;;4992071;28;20041;-66
2021/06/18 04:03:08;;;;;;;195.82;92.50;;;;;;;;;;4993517;28;20017;-66
2021/06/18 04:05:35;;;;;;;210.23;98.43;;;;;;;;;;4993921;28;20107;-66
2021/06/18 04:08:01;;;;;;;226.07;104.15;;;;;;;;;;5006321;28;20030;-66
2021/06/18 04:10:27;;;;;;;237.50;103.65;;;;;;;;;;4993634;28;20033;-67
2021/06/18 04:12:54;;;;;;;238.40;110.15;;;;;;;;;;4992166;28;20050;-66
2021/06/18 04:15:22;;;;;;;274.02;113.50;;;;;;;;;;4987419;28;20122;-66
2021/06/18 04:17:48;;;;;;;222.25;105.07;;;;;;;;;;5007749;28;20042;-66
2021/06/18 04:20:15;;;;;;;276.08;115.68;;;;;;;;;;5005730;28;20022;-66
2021/06/18 04:22:41;;;;;;;237.00;106.25;;;;;;;;;;4991378;28;20106;-66
2021/06/18 04:25:08;;;;;;;206.38;93.75;;;;;;;;;;4993093;28;20508;-66
2021/06/18 04:27:34;;;;;;;217.93;105.00;;;;;;;;;;4990407;28;20034;-66
2021/06/18 04:30:00;;;;;;;237.13;108.57;;;;;;;;;;5000244;28;20090;-66
2021/06/18 04:32:26;;;;;;;236.02;111.57;;;;;;;;;;4987414;28;20034;-67
2021/06/18 04:34:52;;;;;;;247.05;108.57;;;;;;;;;;4989865;28;20053;-66
2021/06/18 04:37:18;;;;;;;172.52;89.22;;;;;;;;;;4997768;28;20034;-66
2021/06/18 04:39:44;;;;;;;178.63;92.95;;;;;;;;;;5005726;28;20026;-66
2021/06/18 04:42:10;;;;;;;162.70;86.03;;;;;;;;;;4992264;28;20089;-66
2021/06/18 04:44:37;;;;;;;171.90;86.47;;;;;;;;;;4978186;28;20026;-66
2021/06/18 04:47:03;;;;;;;217.85;100.00;;;;;;;;;;4988709;28;20050;-66
2021/06/18 04:49:29;;;;;;;214.07;95.22;;;;;;;;;;4984118;28;20022;-66
2021/06/18 04:51:55;;;;;;;188.82;93.25;;;;;;;;;;5002826;28;20034;-66
2021/06/18 04:54:22;;;;;;;198.30;94.30;;;;;;;;;;4992964;28;20023;-66
2021/06/18 04:56:48;;;;;;;202.38;96.50;;;;;;;;;;4978168;28;20582;-66
2021/06/18 04:59:14;;;;;;;173.35;90.50;;;;;;;;;;4977757;28;20027;-66
2021/06/18 05:01:40;;;;;;;206.85;97.78;;;;;;;;;;4975998;28;20034;-67
2021/06/18 05:04:06;;;;;;;193.07;94.72;;;;;;;;;;4976099;28;20030;-66
2021/06/18 05:06:32;;;;;;;171.13;87.72;;;;;;;;;;4975183;28;20031;-66
2021/06/18 05:08:58;;;;;;;170.63;87.97;;;;;;;;;;4977133;28;20049;-66
2021/06/18 05:11:24;;;;;;;154.10;82.65;;;;;;;;;;4973999;28;20038;-66
2021/06/18 05:13:50;;;;;;;174.18;87.45;;;;;;;;;;4976314;28;20022;-67
2021/06/18 05:16:16;;;;;;;157.13;83.35;;;;;;;;;;4975846;28;20035;-66
2021/06/18 05:18:42;;;;;;;162.75;86.60;;;;;;;;;;4982300;28;20026;-66
2021/06/18 05:21:09;;;;;;;146.02;78.18;;;;;;;;;;4986309;28;20019;-66
2021/06/18 05:23:35;;;;;;;155.60;85.25;;;;;;;;;;4988221;28;20102;-66
2021/06/18 05:26:01;;;;;;;157.02;91.57;;;;;;;;;;4986781;28;20121;-66
2021/06/18 05:28:27;;;;;;;181.18;93.00;;;;;;;;;;4992709;28;20633;-66
2021/06/18 05:30:53;;;;;;;172.25;92.40;;;;;;;;;;4987996;28;20130;-66
2021/06/18 05:33:19;;;;;;;173.73;91.78;;;;;;;;;;4993466;28;20026;-66
2021/06/18 05:35:45;;;;;;;175.80;96.07;;;;;;;;;;5002368;28;20129;-66
2021/06/18 05:38:12;;;;;;;186.02;98.45;;;;;;;;;;4986674;28;20030;-66
2021/06/18 05:40:41;;;;;;;164.30;89.95;;;;;;;;;;4979789;28;20103;-65
2021/06/18 05:43:11;;;;;;;177.13;94.25;;;;;;;;;;4980356;28;20032;-66
2021/06/18 05:45:38;;;;;;;184.27;100.00;;;;;;;;;;4977758;28;20073;-66
2021/06/18 05:48:04;;;;;;;177.65;97.82;;;;;;;;;;4995998;28;20038;-66
2021/06/18 05:50:31;;;;;;;188.77;101.30;;;;;;;;;;4985704;28;20019;-66
2021/06/18 05:52:57;;;;;;;197.55;104.15;;;;;;;;;;4984689;28;20022;-66
2021/06/18 05:55:23;;;;;;;175.80;98.47;;;;;;;;;;5001477;28;20029;-66
2021/06/18 05:57:50;;;;;;;181.45;100.93;;;;;;;;;;4999739;28;20062;-65
2021/06/18 06:00:16;;;;;;;192.57;103.72;;;;;;;;;;4992587;28;20058;-66
2021/06/18 06:02:42;;;;;;;192.15;104.22;;;;;;;;;;4990347;28;20026;-65
2021/06/18 06:05:09;;;;;;;175.48;98.72;;;;;;;;;;4991805;28;20027;-66
2021/06/18 06:07:35;;;;;;;158.18;92.65;;;;;;;;;;4996670;28;20190;-66
2021/06/18 06:10:01;;;;;;;154.15;90.85;;;;;;;;;;4990858;28;20022;-65
2021/06/18 06:12:27;;;;;;;203.48;103.35;;;;;;;;;;4986231;28;20029;-66
2021/06/18 06:14:53;;;;;;;162.00;98.57;;;;;;;;;;4990065;28;20030;-65
2021/06/18 06:17:19;;;;;;;181.80;101.43;;;;;;;;;;4991259;28;20025;-66
2021/06/18 06:19:45;;;;;;;160.98;96.15;;;;;;;;;;5000975;28;20086;-66
2021/06/18 06:22:11;;;;;;;173.63;99.32;;;;;;;;;;4991835;28;20038;-66
2021/06/18 06:24:37;;;;;;;179.70;97.93;;;;;;;;;;4989407;28;20035;-66
2021/06/18 06:27:03;;;;;;;167.80;99.65;;;;;;;;;;4989643;28;20037;-65
2021/06/18 06:29:30;;;;;;;173.23;97.43;;;;;;;;;;4988870;28;20022;-65
2021/06/18 06:31:56;;;;;;;184.57;100.63;;;;;;;;;;4985474;28;20294;-66
2021/06/18 06:34:22;;;;;;;159.70;94.55;;;;;;;;;;4988261;28;20034;-66
2021/06/18 06:36:48;;;;;;;161.02;97.43;;;;;;;;;;4988252;28;20033;-65
2021/06/18 06:39:14;;;;;;;150.27;89.38;;;;;;;;;;4988332;28;20023;-65
2021/06/18 06:41:40;;;;;;;155.57;93.22;;;;;;;;;;4986168;28;20037;-65
2021/06/18 06:44:06;;;;;;;151.88;91.80;;;;;;;;;;4989657;28;20022;-65
2021/06/18 06:46:33;;;;;;;145.15;86.85;;;;;;;;;;4986312;28;20030;-65
2021/06/18 06:48:59;;;;;;;131.90;82.95;;;;;;;;;;4988822;28;20034;-65
2021/06/18 06:51:26;;;;;;;128.70;81.05;;;;;;;;;;4986647;28;20026;-65
2021/06/18 06:53:52;;;;;;;129.18;79.15;;;;;;;;;;4989287;28;20026;-65
2021/06/18 06:56:18;;;;;;;113.30;73.53;;;;;;;;;;4989048;28;20272;-65
2021/06/18 06:58:44;;;;;;;120.95;77.45;;;;;;;;;;4989043;28;20034;-65
2021/06/18 07:01:11;;;;;;;107.65;73.75;;;;;;;;;;4986202;28;20034;-65
2021/06/18 07:03:37;;;;;;;106.53;74.25;;;;;;;;;;4989153;28;20038;-65
2021/06/18 07:06:04;;;;;;;121.13;74.70;;;;;;;;;;4989360;28;20027;-65
2021/06/18 07:08:30;;;;;;;106.80;74.25;;;;;;;;;;4989599;28;20053;-65
2021/06/18 07:10:56;;;;;;;99.47;69.00;;;;;;;;;;4987173;28;20037;-64
2021/06/18 07:13:22;;;;;;;97.38;68.32;;;;;;;;;;4988967;28;20070;-64
2021/06/18 07:15:50;;;;;;;92.93;65.97;;;;;;;;;;4989190;28;20038;-64
2021/06/18 07:18:16;;;;;;;98.40;66.78;;;;;;;;;;4980143;28;20113;-64
2021/06/18 07:20:42;;;;;;;87.60;61.53;;;;;;;;;;4986717;28;20037;-64
2021/06/18 07:23:09;;;;;;;97.85;64.63;;;;;;;;;;4985527;28;20497;-64
2021/06/18 07:25:35;;;;;;;91.65;61.20;;;;;;;;;;4987894;28;20053;-64
2021/06/18 07:28:01;;;;;;;86.35;62.17;;;;;;;;;;4993741;28;20038;-64
2021/06/18 07:30:27;;;;;;;77.88;58.97;;;;;;;;;;4986004;28;20493;-63
2021/06/18 07:32:53;;;;;;;82.45;57.85;;;;;;;;;;4991259;28;20030;-64
2021/06/18 07:35:19;;;;;;;78.50;59.05;;;;;;;;;;4989173;28;20042;-64
2021/06/18 07:37:45;;;;;;;78.88;55.03;;;;;;;;;;4988837;28;20027;-64
2021/06/18 07:40:13;;;;;;;74.22;52.45;;;;;;;;;;4989024;28;20030;-64
2021/06/18 07:42:39;;;;;;;72.85;55.28;;;;;;;;;;4985315;28;20069;-64
2021/06/18 07:45:06;;;;;;;71.18;53.05;;;;;;;;;;4989155;28;20516;-64
2021/06/18 07:47:32;;;;;;;67.88;56.00;;;;;;;;;;4982845;28;20037;-64
2021/06/18 07:49:58;;;;;;;77.25;55.88;;;;;;;;;;5054216;28;20486;-64
2021/06/18 07:52:24;;;;;;;67.90;51.67;;;;;;;;;;4985567;28;20079;-64
2021/06/18 07:54:57;;;;;;;66.03;50.58;;;;;;;;;;4988826;28;20409;-64
2021/06/18 07:57:23;;;;;;;58.50;47.90;;;;;;;;;;4989296;28;20030;-65
2021/06/18 07:59:50;;;;;;;64.25;50.13;;;;;;;;;;4988583;28;20477;-64
2021/06/18 08:02:16;;;;;;;61.33;46.30;;;;;;;;;;4985426;28;20246;-65
2021/06/18 08:04:42;;;;;;;59.58;44.50;;;;;;;;;;4988692;28;20065;-65
2021/06/18 08:07:08;;;;;;;58.35;43.20;;;;;;;;;;4988897;28;20026;-65
2021/06/18 08:09:34;;;;;;;47.80;38.70;;;;;;;;;;4988036;28;20034;-65
2021/06/18 08:12:00;;;;;;;41.45;34.22;;;;;;;;;;4984621;28;20018;-65
2021/06/18 08:14:27;;;;;;;39.05;33.10;;;;;;;;;;4988503;28;20018;-65
2021/06/18 08:16:53;;;;;;;37.30;30.80;;;;;;;;;;4988149;28;20030;-65
2021/06/18 08:19:19;;;;;;;36.92;28.55;;;;;;;;;;4987853;28;20558;-65
2021/06/18 08:21:45;;;;;;;38.10;30.80;;;;;;;;;;4984983;28;20034;-65
2021/06/18 08:24:11;;;;;;;37.38;30.02;;;;;;;;;;4986674;28;20489;-66
2021/06/18 08:26:37;;;;;;;34.08;27.55;;;;;;;;;;4988249;28;20038;-65
2021/06/18 08:29:03;;;;;;;33.47;26.63;;;;;;;;;;4986641;28;20474;-65
2021/06/18 08:31:29;;;;;;;34.80;27.42;;;;;;;;;;4983023;28;20463;-65
2021/06/18 08:33:57;;;;;;;30.83;25.92;;;;;;;;;;4987906;28;20076;-65
2021/06/18 08:36:23;;;;;;;30.67;25.10;;;;;;;;;;4988367;28;20493;-65
2021/06/18 08:38:49;;;;;;;34.15;25.38;;;;;;;;;;4987677;28;20018;-65
2021/06/18 08:41:15;;;;;;;28.13;23.58;;;;;;;;;;4985362;28;20394;-65
2021/06/18 08:43:42;;;;;;;32.53;24.70;;;;;;;;;;4988225;28;20048;-65
2021/06/18 08:46:08;;;;;;;36.40;25.45;;;;;;;;;;4988240;28;20054;-65
2021/06/18 08:48:34;;;;;;;29.70;24.52;;;;;;;;;;4991314;28;20033;-65
2021/06/18 08:51:01;;;;;;;28.63;24.08;;;;;;;;;;4985484;28;20030;-65
2021/06/18 08:53:27;;;;;;;30.33;24.50;;;;;;;;;;4987547;28;20022;-66
2021/06/18 08:55:54;;;;;;;28.30;22.58;;;;;;;;;;4987927;28;20485;-65
2021/06/18 08:58:21;;;;;;;29.20;22.10;;;;;;;;;;4987894;28;20030;-65
2021/06/18 09:00:48;;;;;;;27.10;23.55;;;;;;;;;;4985587;28;20045;-65
2021/06/18 09:03:34;;;;;;;24.20;20.42;;;;;;;;;;4987512;28;20064;-66
2021/06/18 09:06:00;;;;;;;27.65;20.02;;;;;;;;;;4986426;28;20049;-64
2021/06/18 09:08:26;;;;;;;24.40;20.92;;;;;;;;;;4987716;28;20081;-64
2021/06/18 09:10:52;;;;;;;27.27;21.38;;;;;;;;;;4985268;28;20097;-64
2021/06/18 09:13:19;;;;;;;25.17;22.15;;;;;;;;;;4987627;28;20030;-64
2021/06/18 09:15:46;;;;;;;24.45;21.83;;;;;;;;;;4987706;28;20075;-65
2021/06/18 09:18:25;;;;;;;24.00;20.02;;;;;;;;;;4987302;28;20037;-66
2021/06/18 09:20:55;;;;;;;24.92;20.00;;;;;;;;;;4984009;28;20091;-64
2021/06/18 09:23:21;;;;;;;23.80;19.98;;;;;;;;;;4987090;28;20026;-64
2021/06/18 09:25:47;;;;;;;26.65;20.08;;;;;;;;;;4990967;28;20112;-64
2021/06/18 09:28:13;;;;;;;24.30;19.42;;;;;;;;;;4991149;28;20524;-64
2021/06/18 09:30:39;;;;;;;23.17;20.00;;;;;;;;;;4988047;28;20018;-64
2021/06/18 09:33:17;;;;;;;21.98;18.88;;;;;;;;;;4990511;28;20022;-64
2021/06/18 09:36:03;;;;;;;22.40;18.70;;;;;;;;;;4989998;28;20046;-65
2021/06/18 09:38:40;;;;;;;27.08;21.15;;;;;;;;;;4990812;28;20030;-64
2021/06/18 09:41:06;;;;;;;29.45;22.33;;;;;;;;;;4987971;28;20041;-64
2021/06/18 09:43:43;;;;;;;25.58;21.77;;;;;;;;;;4990543;28;20029;-64
2021/06/18 09:46:09;;;;;;;27.42;23.13;;;;;;;;;;4990683;28;20030;-65
2021/06/18 09:48:35;;;;;;;27.35;22.30;;;;;;;;;;4996421;28;20041;-65
2021/06/18 09:51:02;;;;;;;28.02;22.25;;;;;;;;;;4997265;28;20034;-65
2021/06/18 09:53:29;;;;;;;28.02;22.25;;;;;;;;;;4985724;28;20023;-65
2021/06/18 09:56:06;;;;;;;28.13;21.00;;;;;;;;;;4990209;28;20037;-65
2021/06/18 09:58:36;;;;;;;24.30;21.70;;;;;;;;;;4986166;28;20117;-65
2021/06/18 10:01:22;;;;;;;27.48;23.63;;;;;;;;;;4985933;28;20050;-65
2021/06/18 10:04:10;;;;;;;30.42;23.48;;;;;;;;;;4990009;28;20279;-65
2021/06/18 10:06:37;;;;;;;28.00;23.55;;;;;;;;;;4989348;28;20027;-65
2021/06/18 10:09:05;;;;;;;25.38;22.33;;;;;;;;;;4989807;28;20023;-65
2021/06/18 10:11:32;;;;;;;25.38;21.90;;;;;;;;;;4985838;28;20026;-64
2021/06/18 10:13:58;;;;;;;29.80;25.33;;;;;;;;;;4990084;28;20119;-65
2021/06/18 10:16:26;;;;;;;29.23;24.83;;;;;;;;;;4990178;28;20057;-65
2021/06/18 10:18:52;;;;;;;28.33;23.92;;;;;;;;;;4990111;28;20027;-66
2021/06/18 10:21:19;;;;;;;27.08;22.77;;;;;;;;;;4989594;28;20038;-65
2021/06/18 10:23:47;;;;;;;28.25;24.27;;;;;;;;;;4990495;28;20026;-65
2021/06/18 10:26:15;;;;;;;31.10;27.55;;;;;;;;;;4990396;28;20037;-65
2021/06/18 10:28:41;;;;;;;28.80;25.33;;;;;;;;;;4990569;28;20026;-65
2021/06/18 10:31:07;;;;;;;30.42;26.67;;;;;;;;;;4987822;28;20026;-66
2021/06/18 10:33:37;;;;;;;30.08;27.08;;;;;;;;;;4988253;28;20485;-68
2021/06/18 10:36:07;;;;;;;37.95;31.10;;;;;;;;;;4990095;28;20625;-66
2021/06/18 10:38:33;;;;;;;34.85;29.10;;;;;;;;;;4990248;28;20513;-66
2021/06/18 10:41:14;;;;;;;38.05;30.63;;;;;;;;;;4987731;28;20103;-65
2021/06/18 10:43:44;;;;;;;36.15;32.42;;;;;;;;;;4988080;28;20027;-66
2021/06/18 10:46:19;;;;;;;34.58;29.17;;;;;;;;;;4989093;28;20069;-66
2021/06/18 10:48:52;;;;;;;32.72;28.38;;;;;;;;;;5000480;28;20490;-66
2021/06/18 10:51:30;;;;;;;35.55;31.65;;;;;;;;;;4995323;28;20023;-66
2021/06/18 10:54:01;;;;;;;38.22;33.28;;;;;;;;;;4980833;28;20026;-65
2021/06/18 10:56:49;;;;;;;37.80;33.80;;;;;;;;;;4989712;28;20105;-66
2021/06/18 10:59:27;;;;;;;40.75;33.13;;;;;;;;;;4990108;28;20038;-66
2021/06/18 11:01:53;;;;;;;40.13;32.90;;;;;;;;;;4987228;28;20044;-66
2021/06/18 11:04:38;;;;;;;39.78;33.00;;;;;;;;;;4989816;28;20030;-65
2021/06/18 11:07:22;;;;;;;41.78;35.85;;;;;;;;;;4989857;28;20061;-66
2021/06/18 11:09:49;;;;;;;40.20;35.15;;;;;;;;;;4989434;28;20429;-66
2021/06/18 11:12:24;;;;;;;42.08;36.28;;;;;;;;;;4986938;28;20029;-67
2021/06/18 11:14:51;;;;;;;38.55;32.83;;;;;;;;;;4990080;28;20023;-66
2021/06/18 11:17:36;;;;;;;38.10;32.83;;;;;;;;;;4989775;28;20038;-66
2021/06/18 11:20:02;;;;;;;36.15;27.27;;;;;;;;;;4989679;28;20030;-66
2021/06/18 11:22:42;;;;;;;33.58;25.08;;;;;;;;;;4986822;28;20574;-66
2021/06/18 11:25:29;;;;;;;30.10;23.05;;;;;;;;;;4974890;28;20036;-66
2021/06/18 11:28:15;;;;;;;32.22;24.77;;;;;;;;;;4973397;28;20049;-66
2021/06/18 11:30:50;;;;;;;31.95;25.95;;;;;;;;;;4967501;28;20288;-67
2021/06/18 11:33:36;;;;;;;30.63;25.45;;;;;;;;;;4969795;28;20030;-66
2021/06/18 11:36:06;;;;;;;29.83;24.10;;;;;;;;;;4977475;28;20088;-67
2021/06/18 11:38:34;;;;;;;28.48;24.05;;;;;;;;;;4989154;28;20037;-67
2021/06/18 11:41:04;;;;;;;26.52;20.30;;;;;;;;;;4986867;28;20027;-66
2021/06/18 11:43:31;;;;;;;22.77;18.77;;;;;;;;;;4989057;28;20263;-66
2021/06/18 11:45:57;;;;;;;20.08;17.83;;;;;;;;;;4988830;28;20444;-66
2021/06/18 11:48:24;;;;;;;21.65;19.30;;;;;;;;;;4984454;28;20023;-66
2021/06/18 11:50:50;;;;;;;22.10;17.73;;;;;;;;;;5087989;28;20032;-67
2021/06/18 11:53:16;;;;;;;23.10;17.52;;;;;;;;;;5091221;28;20544;-66
2021/06/18 11:55:43;;;;;;;21.52;16.48;;;;;;;;;;5057955;28;20076;-66
2021/06/18 11:58:28;;;;;;;18.17;14.98;;;;;;;;;;4988817;28;20029;-65
2021/06/18 12:00:54;;;;;;;23.65;16.88;;;;;;;;;;4986434;28;20187;-66
2021/06/18 12:03:29;;;;;;;20.15;15.18;;;;;;;;;;4988220;28;20038;-65
2021/06/18 12:05:55;;;;;;;17.63;15.00;;;;;;;;;;4989160;28;20038;-65
2021/06/18 12:08:21;;;;;;;18.23;14.23;;;;;;;;;;4988986;28;20076;-65
2021/06/18 12:10:47;;;;;;;15.73;12.90;;;;;;;;;;4986653;28;20022;-66
2021/06/18 12:13:14;;;;;;;22.38;14.60;;;;;;;;;;4988812;28;20026;-66
2021/06/18 12:15:42;;;;;;;21.65;14.23;;;;;;;;;;4989234;28;20026;-66
2021/06/18 12:18:08;;;;;;;20.42;13.75;;;;;;;;;;4988474;28;20022;-65
2021/06/18 12:20:34;;;;;;;18.15;14.52;;;;;;;;;;4985873;28;20031;-65
2021/06/18 12:23:01;;;;;;;18.55;13.32;;;;;;;;;;4987000;28;20026;-65
2021/06/18 12:25:28;;;;;;;16.33;12.02;;;;;;;;;;4973749;28;20067;-65
2021/06/18 12:27:55;;;;;;;24.80;15.57;;;;;;;;;;4988987;28;20035;-66
2021/06/18 12:30:21;;;;;;;19.85;15.35;;;;;;;;;;4987671;28;20493;-66
2021/06/18 12:32:47;;;;;;;22.77;13.43;;;;;;;;;;4987059;28;20026;-65
2021/06/18 12:35:17;;;;;;;17.45;13.05;;;;;;;;;;4988309;28;20041;-65
2021/06/18 12:37:50;;;;;;;14.38;12.07;;;;;;;;;;4988486;28;20027;-65
2021/06/18 12:40:20;;;;;;;17.08;11.23;;;;;;;;;;4988370;28;20031;-66
2021/06/18 12:42:53;;;;;;;16.13;12.35;;;;;;;;;;4986678;28;20026;-66
2021/06/18 12:45:21;;;;;;;19.38;12.43;;;;;;;;;;4988638;28;20076;-66
2021/06/18 12:48:08;;;;;;;13.50;9.77;;;;;;;;;;4986927;28;20026;-67
2021/06/18 12:50:34;;;;;;;14.15;10.00;;;;;;;;;;5063337;28;20439;-65
2021/06/18 12:53:07;;;;;;;15.18;9.38;;;;;;;;;;4984043;28;20101;-66
2021/06/18 12:55:35;;;;;;;16.02;9.68;;;;;;;;;;4985059;28;20023;-66
2021/06/18 12:58:04;;;;;;;12.70;10.18;;;;;;;;;;4989563;28;20494;-66
2021/06/18 13:00:30;;;;;;;12.65;9.13;;;;;;;;;;4997272;28;20030;-66
2021/06/18 13:02:57;;;;;;;13.75;9.82;;;;;;;;;;4998434;28;20397;-67
2021/06/18 13:05:23;;;;;;;13.38;9.00;;;;;;;;;;4991214;28;20026;-66
2021/06/18 13:07:51;;;;;;;11.90;9.07;;;;;;;;;;4992613;28;20148;-66
2021/06/18 13:10:18;;;;;;;13.73;9.20;;;;;;;;;;4991172;28;20033;-67
2021/06/18 13:12:56;;;;;;;30.23;11.00;;;;;;;;;;4992462;28;20020;-71
2021/06/18 13:15:27;;;;;;;43.17;13.23;;;;;;;;;;4989288;28;20031;-68
2021/06/18 13:17:53;;;;;;;44.63;12.60;;;;;;;;;;4990219;28;20099;-68
2021/06/18 13:20:34;;;;;;;37.65;10.75;;;;;;;;;;4989283;28;20034;-68
2021/06/18 13:23:00;;;;;;;33.28;9.70;;;;;;;;;;4991015;28;20018;-68
2021/06/18 13:25:30;;;;;;;28.48;8.52;;;;;;;;;;4987262;28;20039;-67
2021/06/18 13:28:01;;;;;;;25.63;7.80;;;;;;;;;;4990292;28;20053;-67
2021/06/18 13:30:28;;;;;;;30.90;9.30;;;;;;;;;;4988547;28;20038;-68
2021/06/18 13:32:56;;;;;;;30.80;9.75;;;;;;;;;;4994446;28;20026;-68
2021/06/18 13:35:23;;;;;;;40.22;9.90;;;;;;;;;;4995031;28;20052;-68
2021/06/18 13:37:51;;;;;;;32.92;7.82;;;;;;;;;;4997862;28;20038;-68
2021/06/18 13:40:23;;;;;;;29.60;8.05;;;;;;;;;;4988202;28;20049;-69
2021/06/18 13:42:50;;;;;;;22.20;6.82;;;;;;;;;;4975786;28;20060;-67
2021/06/18 13:45:16;;;;;;;30.88;7.95;;;;;;;;;;5005924;28;20049;-67
2021/06/18 13:47:42;;;;;;;30.10;7.63;;;;;;;;;;4991482;28;20531;-67
2021/06/18 13:50:09;;;;;;;24.42;7.43;;;;;;;;;;4993228;28;20022;-69
2021/06/18 13:52:35;;;;;;;33.92;8.95;;;;;;;;;;4987647;28;20088;-68
2021/06/18 13:55:03;;;;;;;32.03;10.13;;;;;;;;;;4986519;28;20022;-69
2021/06/18 13:57:29;;;;;;;38.05;11.75;;;;;;;;;;4989187;28;20146;-68
2021/06/18 13:59:55;;;;;;;44.92;12.32;;;;;;;;;;4992478;28;20046;-69
2021/06/18 14:02:21;;;;;;;40.45;12.02;;;;;;;;;;4991792;28;20041;-68
2021/06/18 14:04:48;;;;;;;45.92;11.43;;;;;;;;;;5006454;28;20033;-68
2021/06/18 14:07:14;;;;;;;39.20;11.30;;;;;;;;;;4989799;28;20068;-68
2021/06/18 14:09:41;;;;;;;41.53;9.90;;;;;;;;;;4989650;28;20038;-69
2021/06/18 14:12:08;;;;;;;34.60;10.73;;;;;;;;;;4987786;28;20083;-68
2021/06/18 14:17:19;;;;;;;30.50;9.13;;;;;;;;;;4983346;28;20087;-68